ADDS METAR Data INFO
IDs: Format: Raw Decoded Include TAF

Data at: 1014 UTC 14 Dec 2017

KLWD 140953Z AUTO 33007KT 10SM OVC026 M02/M07 A2999 RMK AO2 SLP163 T10171067
KLWD 140922Z AUTO 36006KT 10SM BKN026 M02/M07 A2998 RMK AO2 T10221072
KLWD 140853Z AUTO 35007KT 10SM FEW026 M02/M07 A2999 RMK AO2 SLP162 T10221072 51011
KLWD 140849Z AUTO 35005KT 10SM FEW026 M02/M07 A2999 RMK AO2
KLWD 140801Z AUTO 35011KT 10SM BKN029 OVC034 M01/M07 A2998 RMK AO2 T10061067
KLWD 140753Z AUTO 33012KT 10SM OVC033 M01/M07 A2997 RMK AO2 SLP156 T10061067
KLWD 140653Z AUTO 36011KT 10SM OVC035 00/M06 A2995 RMK AO2 SLP150 T00001061
KLWD 140553Z AUTO 36012KT 10SM OVC039 01/M06 A2994 RMK AO2 SLP147 T00111061 10050 20011 401111022 51019
KLWD 140453Z AUTO 32012G17KT 10SM OVC038 02/M06 A2993 RMK AO2 SLP140 T00171056
KLWD 140353Z AUTO 34016G21KT 10SM OVC041 02/M05 A2990 RMK AO2 SLP132 T00171050
KLWD 140253Z AUTO 35015G26KT 10SM OVC032 03/M04 A2989 RMK AO2 PK WND 32030/0158 SLP127 T00281044 51026
KLWD 140153Z AUTO 35015G30KT 10SM OVC038 04/M04 A2985 RMK AO2 PK WND 33038/0123 SLP116 T00391039
KLWD 140053Z AUTO 34017G27KT 10SM OVC034 04/M02 A2984 RMK AO2 PK WND 32031/0004 SLP114 T00391022
KLWD 132353Z AUTO 33019G28KT 10SM OVC040 05/M03 A2981 RMK AO2 PK WND 33036/2310 SLP102 T00501028 10106 20050 53035
KLWD 132253Z AUTO 33016G26KT 10SM OVC040 07/M02 A2977 RMK AO2 PK WND 31033/2235 SLP089 T00671017
KLWD 132153Z AUTO 33018G24KT 10SM SCT041 08/M02 A2973 RMK AO2 PK WND 31037/2129 SLP073 T00781017
KLWD 132053Z AUTO 33022G29KT 10SM CLR 09/M02 A2970 RMK AO2 PK WND 32036/1958 SLP064 T00941017 53020
KLWD 131953Z AUTO 31030G40KT 10SM CLR 10/M01 A2967 RMK AO2 PK WND 29040/1951 SLP053 T01001011
KLWD 131853Z AUTO 31030G38KT 10SM CLR 10/M01 A2965 RMK AO2 PK WND 32041/1827 SLP047 T01001006
KLWD 131753Z AUTO 31027G42KT 10SM CLR 10/00 A2964 RMK AO2 PK WND 32043/1723 SLP043 T01000000 10111 20011 51020
KLWD 131653Z AUTO 33027G43KT 10SM FEW045 10/01 A2962 RMK AO2 PK WND 31045/1611 SLP038 T01000006
KLWD 131553Z AUTO 30028G38KT 10SM CLR 11/M02 A2959 RMK AO2 PK WND 30038/1546 SLP027 T01061022
KLWD 131453Z AUTO 29021G28KT 10SM BKN110 08/M04 A2958 RMK AO2 PK WND 29028/1447 SLP024 T00781039 55003
KLWD 131353Z AUTO 27015KT 10SM SCT100 04/M04 A2956 RMK AO2 SLP021 T00391044
KLWD 131253Z AUTO 26013KT 10SM CLR 03/M05 A2957 RMK AO2 SLP023 T00281050
KLWD 131153Z AUTO 25016KT 10SM CLR 01/M04 A2959 RMK AO2 SLP029 T00111044 10011 21022 56027
KLWD 131053Z AUTO 22012KT 10SM CLR M01/M04 A2959 RMK AO2 SLP029 T10061044
KLWD 130953Z AUTO 20014KT 10SM CLR M01/M04 A2961 RMK AO2 PRESFR SLP037 T10061044
KLWD 130853Z AUTO 20015KT 10SM CLR M01/M04 A2967 RMK AO2 SLP056 T10061044 58053
KLWD 130753Z AUTO 20013KT 10SM CLR M01/M05 A2972 RMK AO2 SLP076 T10111050
KLWD 130653Z AUTO 19012KT 10SM CLR M02/M06 A2978 RMK AO2 SLP098 T10171056
KLWD 130553Z AUTO 19010KT 10SM CLR M02/M06 A2983 RMK AO2 SLP114 T10221061 11022 21033 400171111 58042
KLWD 130453Z AUTO 19011KT 10SM CLR M03/M07 A2987 RMK AO2 SLP130 T10281067
KLWD 130353Z AUTO 19010KT 10SM CLR M03/M07 A2992 RMK AO2 SLP146 T10281072
KLWD 130253Z AUTO 19007KT 10SM CLR M03/M08 A2996 RMK AO2 SLP161 T10331078 58028
KLWD 130153Z AUTO 20007KT 10SM CLR M03/M08 A2999 RMK AO2 SLP175 T10281078
KLWD 130053Z AUTO 20007KT 10SM CLR M03/M08 A3002 RMK AO2 SLP183 T10281078
KLWD 122353Z AUTO 21008KT 10SM CLR M02/M08 A3004 RMK AO2 SLP190 T10221078 10017 21022 58027
KLWD 122253Z AUTO 23005KT 10SM FEW035 M01/M08 A3008 RMK AO2 SLP203 T10111078